sensor_id;sensor_type;location;lat;lon;timestamp;P1;durP1;ratioP1;P2;durP2;ratioP2
2123;SDS011;1068;52.460;13.528;2023-04-02T00:03:24;10.00;;;4.72;;
2123;SDS011;1068;52.460;13.528;2023-04-02T00:05:51;4.40;;;4.03;;
2123;SDS011;1068;52.460;13.528;2023-04-02T00:08:34;4.93;;;3.95;;
2123;SDS011;1068;52.460;13.528;2023-04-02T00:11:05;3.92;;;3.08;;
2123;SDS011;1068;52.460;13.528;2023-04-02T00:13:33;3.80;;;3.50;;
2123;SDS011;1068;52.460;13.528;2023-04-02T00:16:01;5.70;;;3.42;;
2123;SDS011;1068;52.460;13.528;2023-04-02T00:18:30;4.60;;;4.20;;
2123;SDS011;1068;52.460;13.528;2023-04-02T00:21:01;5.13;;;3.95;;
2123;SDS011;1068;52.460;13.528;2023-04-02T00:23:30;4.05;;;3.70;;
2123;SDS011;1068;52.460;13.528;2023-04-02T00:25:58;4.53;;;3.88;;
2123;SDS011;1068;52.460;13.528;2023-04-02T00:28:25;4.00;;;3.63;;
2123;SDS011;1068;52.460;13.528;2023-04-02T00:30:53;3.83;;;3.45;;
2123;SDS011;1068;52.460;13.528;2023-04-02T00:33:21;5.82;;;4.15;;
2123;SDS011;1068;52.460;13.528;2023-04-02T00:35:50;4.68;;;4.15;;
2123;SDS011;1068;52.460;13.528;2023-04-02T00:38:19;3.75;;;3.15;;
2123;SDS011;1068;52.460;13.528;2023-04-02T00:40:46;5.88;;;4.25;;
2123;SDS011;1068;52.460;13.528;2023-04-02T00:43:15;4.40;;;3.20;;
2123;SDS011;1068;52.460;13.528;2023-04-02T00:45:42;4.13;;;3.72;;
2123;SDS011;1068;52.460;13.528;2023-04-02T00:48:15;3.40;;;3.10;;
2123;SDS011;1068;52.460;13.528;2023-04-02T00:50:46;5.22;;;3.70;;
2123;SDS011;1068;52.460;13.528;2023-04-02T00:53:17;3.40;;;3.10;;
2123;SDS011;1068;52.460;13.528;2023-04-02T00:55:46;3.00;;;2.70;;
2123;SDS011;1068;52.460;13.528;2023-04-02T00:58:15;5.07;;;3.45;;
2123;SDS011;1068;52.460;13.528;2023-04-02T01:00:47;5.47;;;3.33;;
2123;SDS011;1068;52.460;13.528;2023-04-02T01:03:27;8.20;;;4.55;;
2123;SDS011;1068;52.460;13.528;2023-04-02T01:05:59;3.63;;;3.28;;
2123;SDS011;1068;52.460;13.528;2023-04-02T01:08:31;4.60;;;3.53;;
2123;SDS011;1068;52.460;13.528;2023-04-02T01:11:06;4.47;;;3.72;;
2123;SDS011;1068;52.460;13.528;2023-04-02T01:13:35;8.48;;;3.90;;
2123;SDS011;1068;52.460;13.528;2023-04-02T01:16:06;8.40;;;3.70;;
2123;SDS011;1068;52.460;13.528;2023-04-02T01:18:40;7.78;;;4.32;;
2123;SDS011;1068;52.460;13.528;2023-04-02T01:21:13;3.47;;;3.20;;
2123;SDS011;1068;52.460;13.528;2023-04-02T01:23:47;4.68;;;3.92;;
2123;SDS011;1068;52.460;13.528;2023-04-02T01:26:20;3.80;;;3.25;;
2123;SDS011;1068;52.460;13.528;2023-04-02T01:28:55;4.10;;;3.80;;
2123;SDS011;1068;52.460;13.528;2023-04-02T01:31:25;3.58;;;3.13;;
2123;SDS011;1068;52.460;13.528;2023-04-02T01:33:52;5.43;;;3.80;;
2123;SDS011;1068;52.460;13.528;2023-04-02T01:36:22;4.32;;;3.40;;
2123;SDS011;1068;52.460;13.528;2023-04-02T01:38:52;3.80;;;3.50;;
2123;SDS011;1068;52.460;13.528;2023-04-02T01:41:22;6.05;;;3.40;;
2123;SDS011;1068;52.460;13.528;2023-04-02T01:43:52;5.03;;;3.35;;
2123;SDS011;1068;52.460;13.528;2023-04-02T01:46:25;3.28;;;2.97;;
2123;SDS011;1068;52.460;13.528;2023-04-02T01:48:53;4.90;;;3.60;;
2123;SDS011;1068;52.460;13.528;2023-04-02T01:51:24;3.60;;;3.00;;
2123;SDS011;1068;52.460;13.528;2023-04-02T01:53:52;3.42;;;2.90;;
2123;SDS011;1068;52.460;13.528;2023-04-02T01:56:20;3.25;;;3.00;;
2123;SDS011;1068;52.460;13.528;2023-04-02T01:58:47;5.25;;;3.25;;
2123;SDS011;1068;52.460;13.528;2023-04-02T02:01:15;3.08;;;2.88;;
2123;SDS011;1068;52.460;13.528;2023-04-02T02:03:44;5.68;;;2.67;;
2123;SDS011;1068;52.460;13.528;2023-04-02T02:06:12;3.75;;;2.63;;
2123;SDS011;1068;52.460;13.528;2023-04-02T02:08:43;3.50;;;2.83;;
2123;SDS011;1068;52.460;13.528;2023-04-02T02:11:13;2.50;;;2.30;;
2123;SDS011;1068;52.460;13.528;2023-04-02T02:13:44;9.70;;;5.13;;
2123;SDS011;1068;52.460;13.528;2023-04-02T02:16:11;3.65;;;2.67;;
2123;SDS011;1068;52.460;13.528;2023-04-02T02:18:41;2.97;;;2.45;;
2123;SDS011;1068;52.460;13.528;2023-04-02T02:21:11;2.45;;;2.25;;
2123;SDS011;1068;52.460;13.528;2023-04-02T02:23:41;3.35;;;2.80;;
2123;SDS011;1068;52.460;13.528;2023-04-02T02:26:09;2.22;;;2.03;;
2123;SDS011;1068;52.460;13.528;2023-04-02T02:28:37;3.20;;;2.90;;
2123;SDS011;1068;52.460;13.528;2023-04-02T02:31:06;2.97;;;2.58;;
2123;SDS011;1068;52.460;13.528;2023-04-02T02:33:37;4.97;;;2.50;;
2123;SDS011;1068;52.460;13.528;2023-04-02T02:36:06;4.05;;;2.67;;
2123;SDS011;1068;52.460;13.528;2023-04-02T02:38:40;3.40;;;2.67;;
2123;SDS011;1068;52.460;13.528;2023-04-02T02:41:12;3.63;;;2.55;;
2123;SDS011;1068;52.460;13.528;2023-04-02T02:43:41;2.75;;;2.45;;
2123;SDS011;1068;52.460;13.528;2023-04-02T02:46:10;3.35;;;2.80;;
2123;SDS011;1068;52.460;13.528;2023-04-02T02:48:39;2.20;;;2.10;;
2123;SDS011;1068;52.460;13.528;2023-04-02T02:51:08;3.45;;;2.85;;
2123;SDS011;1068;52.460;13.528;2023-04-02T02:53:44;4.93;;;2.30;;
2123;SDS011;1068;52.460;13.528;2023-04-02T02:56:12;3.28;;;2.50;;
2123;SDS011;1068;52.460;13.528;2023-04-02T02:58:39;2.45;;;2.28;;
2123;SDS011;1068;52.460;13.528;2023-04-02T03:01:06;5.55;;;2.72;;
2123;SDS011;1068;52.460;13.528;2023-04-02T03:03:33;2.65;;;2.20;;
2123;SDS011;1068;52.460;13.528;2023-04-02T03:06:01;2.22;;;2.00;;
2123;SDS011;1068;52.460;13.528;2023-04-02T03:08:30;2.47;;;1.67;;
2123;SDS011;1068;52.460;13.528;2023-04-02T03:11:01;3.17;;;2.15;;
2123;SDS011;1068;52.460;13.528;2023-04-02T03:13:29;2.70;;;2.20;;
2123;SDS011;1068;52.460;13.528;2023-04-02T03:16:00;3.33;;;1.73;;
2123;SDS011;1068;52.460;13.528;2023-04-02T03:18:31;2.13;;;1.92;;
2123;SDS011;1068;52.460;13.528;2023-04-02T03:21:01;6.05;;;2.53;;
2123;SDS011;1068;52.460;13.528;2023-04-02T03:23:31;4.43;;;2.08;;
2123;SDS011;1068;52.460;13.528;2023-04-02T03:26:03;3.65;;;2.20;;
2123;SDS011;1068;52.460;13.528;2023-04-02T03:28:33;1.88;;;1.77;;
2123;SDS011;1068;52.460;13.528;2023-04-02T03:31:03;2.35;;;2.17;;
2123;SDS011;1068;52.460;13.528;2023-04-02T03:33:32;2.50;;;1.80;;
2123;SDS011;1068;52.460;13.528;2023-04-02T03:36:01;2.70;;;1.95;;
2123;SDS011;1068;52.460;13.528;2023-04-02T03:38:29;3.60;;;1.70;;
2123;SDS011;1068;52.460;13.528;2023-04-02T03:40:58;3.03;;;2.10;;
2123;SDS011;1068;52.460;13.528;2023-04-02T03:43:29;5.00;;;2.20;;
2123;SDS011;1068;52.460;13.528;2023-04-02T03:45:58;3.42;;;2.00;;
2123;SDS011;1068;52.460;13.528;2023-04-02T03:48:29;4.13;;;2.10;;
2123;SDS011;1068;52.460;13.528;2023-04-02T03:50:57;3.00;;;1.80;;
2123;SDS011;1068;52.460;13.528;2023-04-02T03:53:25;3.67;;;2.15;;
2123;SDS011;1068;52.460;13.528;2023-04-02T03:55:56;3.70;;;2.05;;
2123;SDS011;1068;52.460;13.528;2023-04-02T03:58:23;3.35;;;1.70;;
2123;SDS011;1068;52.460;13.528;2023-04-02T04:00:54;5.65;;;1.65;;
2123;SDS011;1068;52.460;13.528;2023-04-02T04:03:24;4.25;;;1.88;;
2123;SDS011;1068;52.460;13.528;2023-04-02T04:05:53;2.75;;;2.28;;
2123;SDS011;1068;52.460;13.528;2023-04-02T04:08:22;3.05;;;1.65;;
2123;SDS011;1068;52.460;13.528;2023-04-02T04:10:51;2.55;;;2.35;;
2123;SDS011;1068;52.460;13.528;2023-04-02T04:13:20;2.45;;;2.25;;
2123;SDS011;1068;52.460;13.528;2023-04-02T04:15:49;2.20;;;1.95;;
2123;SDS011;1068;52.460;13.528;2023-04-02T04:18:22;3.88;;;2.00;;
2123;SDS011;1068;52.460;13.528;2023-04-02T04:20:59;3.15;;;1.80;;
2123;SDS011;1068;52.460;13.528;2023-04-02T04:23:28;2.53;;;2.30;;
2123;SDS011;1068;52.460;13.528;2023-04-02T04:25:56;3.88;;;2.20;;
2123;SDS011;1068;52.460;13.528;2023-04-02T04:28:24;2.50;;;1.90;;
2123;SDS011;1068;52.460;13.528;2023-04-02T04:30:55;2.28;;;2.08;;
2123;SDS011;1068;52.460;13.528;2023-04-02T04:33:26;2.17;;;1.98;;
2123;SDS011;1068;52.460;13.528;2023-04-02T04:35:59;3.42;;;1.65;;
2123;SDS011;1068;52.460;13.528;2023-04-02T04:38:28;1.77;;;1.58;;
2123;SDS011;1068;52.460;13.528;2023-04-02T04:40:57;2.42;;;1.48;;
2123;SDS011;1068;52.460;13.528;2023-04-02T04:43:28;2.35;;;1.98;;
2123;SDS011;1068;52.460;13.528;2023-04-02T04:45:58;1.80;;;1.70;;
2123;SDS011;1068;52.460;13.528;2023-04-02T04:48:30;3.47;;;1.85;;
2123;SDS011;1068;52.460;13.528;2023-04-02T04:50:59;2.42;;;1.88;;
2123;SDS011;1068;52.460;13.528;2023-04-02T04:53:27;2.08;;;1.40;;
2123;SDS011;1068;52.460;13.528;2023-04-02T04:55:55;2.85;;;1.33;;
2123;SDS011;1068;52.460;13.528;2023-04-02T04:58:25;4.47;;;1.30;;
2123;SDS011;1068;52.460;13.528;2023-04-02T05:00:55;4.05;;;1.27;;
2123;SDS011;1068;52.460;13.528;2023-04-02T05:03:25;3.63;;;1.92;;
2123;SDS011;1068;52.460;13.528;2023-04-02T05:05:59;2.20;;;1.40;;
2123;SDS011;1068;52.460;13.528;2023-04-02T05:08:28;1.55;;;1.13;;
2123;SDS011;1068;52.460;13.528;2023-04-02T05:10:57;4.53;;;1.75;;
2123;SDS011;1068;52.460;13.528;2023-04-02T05:13:27;1.65;;;1.35;;
2123;SDS011;1068;52.460;13.528;2023-04-02T05:15:59;1.65;;;1.40;;
2123;SDS011;1068;52.460;13.528;2023-04-02T05:18:29;5.00;;;1.80;;
2123;SDS011;1068;52.460;13.528;2023-04-02T05:20:59;7.78;;;1.92;;
2123;SDS011;1068;52.460;13.528;2023-04-02T05:23:29;2.00;;;1.58;;
2123;SDS011;1068;52.460;13.528;2023-04-02T05:25:58;1.80;;;1.40;;
2123;SDS011;1068;52.460;13.528;2023-04-02T05:28:29;2.03;;;1.80;;
2123;SDS011;1068;52.460;13.528;2023-04-02T05:30:58;1.85;;;1.38;;
2123;SDS011;1068;52.460;13.528;2023-04-02T05:33:28;1.73;;;1.33;;
2123;SDS011;1068;52.460;13.528;2023-04-02T05:35:56;4.47;;;1.70;;
2123;SDS011;1068;52.460;13.528;2023-04-02T05:38:26;3.45;;;1.60;;
2123;SDS011;1068;52.460;13.528;2023-04-02T05:40:57;1.90;;;1.65;;
2123;SDS011;1068;52.460;13.528;2023-04-02T05:43:25;3.15;;;1.75;;
2123;SDS011;1068;52.460;13.528;2023-04-02T05:45:52;4.00;;;1.80;;
2123;SDS011;1068;52.460;13.528;2023-04-02T05:48:21;3.08;;;1.52;;
2123;SDS011;1068;52.460;13.528;2023-04-02T05:50:51;4.78;;;1.42;;
2123;SDS011;1068;52.460;13.528;2023-04-02T05:53:20;3.28;;;1.40;;
2123;SDS011;1068;52.460;13.528;2023-04-02T05:55:51;2.58;;;1.65;;
2123;SDS011;1068;52.460;13.528;2023-04-02T05:58:21;3.17;;;1.25;;
2123;SDS011;1068;52.460;13.528;2023-04-02T06:00:51;4.90;;;1.38;;
2123;SDS011;1068;52.460;13.528;2023-04-02T06:03:23;3.58;;;1.42;;
2123;SDS011;1068;52.460;13.528;2023-04-02T06:05:51;3.47;;;1.45;;
2123;SDS011;1068;52.460;13.528;2023-04-02T06:08:19;3.03;;;1.50;;
2123;SDS011;1068;52.460;13.528;2023-04-02T06:10:48;2.22;;;1.30;;
2123;SDS011;1068;52.460;13.528;2023-04-02T06:13:19;3.85;;;1.35;;
2123;SDS011;1068;52.460;13.528;2023-04-02T06:15:47;2.50;;;1.67;;
2123;SDS011;1068;52.460;13.528;2023-04-02T06:18:14;2.40;;;1.42;;
2123;SDS011;1068;52.460;13.528;2023-04-02T06:20:41;2.42;;;1.35;;
2123;SDS011;1068;52.460;13.528;2023-04-02T06:23:10;1.30;;;1.20;;
2123;SDS011;1068;52.460;13.528;2023-04-02T06:25:40;3.30;;;1.52;;
2123;SDS011;1068;52.460;13.528;2023-04-02T06:28:10;5.22;;;1.30;;
2123;SDS011;1068;52.460;13.528;2023-04-02T06:30:40;3.10;;;1.10;;
2123;SDS011;1068;52.460;13.528;2023-04-02T06:33:07;5.32;;;1.30;;
2123;SDS011;1068;52.460;13.528;2023-04-02T06:35:36;3.90;;;1.40;;
2123;SDS011;1068;52.460;13.528;2023-04-02T06:38:04;5.88;;;1.55;;
2123;SDS011;1068;52.460;13.528;2023-04-02T06:40:34;3.10;;;1.60;;
2123;SDS011;1068;52.460;13.528;2023-04-02T06:43:04;15.43;;;2.50;;
2123;SDS011;1068;52.460;13.528;2023-04-02T06:45:36;6.25;;;1.60;;
2123;SDS011;1068;52.460;13.528;2023-04-02T06:48:07;2.55;;;1.23;;
2123;SDS011;1068;52.460;13.528;2023-04-02T06:50:40;1.35;;;1.10;;
2123;SDS011;1068;52.460;13.528;2023-04-02T06:53:09;2.55;;;1.10;;
2123;SDS011;1068;52.460;13.528;2023-04-02T06:55:43;3.38;;;1.20;;
2123;SDS011;1068;52.460;13.528;2023-04-02T06:58:12;2.80;;;1.75;;
2123;SDS011;1068;52.460;13.528;2023-04-02T07:00:40;2.05;;;1.20;;
2123;SDS011;1068;52.460;13.528;2023-04-02T07:03:13;2.58;;;1.33;;
2123;SDS011;1068;52.460;13.528;2023-04-02T07:05:41;4.13;;;1.55;;
2123;SDS011;1068;52.460;13.528;2023-04-02T07:08:08;1.75;;;1.20;;
2123;SDS011;1068;52.460;13.528;2023-04-02T07:10:35;3.63;;;1.40;;
2123;SDS011;1068;52.460;13.528;2023-04-02T07:13:02;2.33;;;1.40;;
2123;SDS011;1068;52.460;13.528;2023-04-02T07:15:30;3.35;;;1.20;;
2123;SDS011;1068;52.460;13.528;2023-04-02T07:17:57;2.03;;;1.73;;
2123;SDS011;1068;52.460;13.528;2023-04-02T07:20:27;2.67;;;1.30;;
2123;SDS011;1068;52.460;13.528;2023-04-02T07:22:55;5.68;;;1.50;;
2123;SDS011;1068;52.460;13.528;2023-04-02T07:25:22;4.30;;;1.60;;
2123;SDS011;1068;52.460;13.528;2023-04-02T07:27:49;2.17;;;1.40;;
2123;SDS011;1068;52.460;13.528;2023-04-02T07:30:17;3.25;;;1.13;;
2123;SDS011;1068;52.460;13.528;2023-04-02T07:32:44;5.80;;;1.45;;
2123;SDS011;1068;52.460;13.528;2023-04-02T07:35:11;3.28;;;1.52;;
2123;SDS011;1068;52.460;13.528;2023-04-02T07:37:39;3.47;;;1.17;;
2123;SDS011;1068;52.460;13.528;2023-04-02T07:40:08;2.58;;;1.23;;
2123;SDS011;1068;52.460;13.528;2023-04-02T07:42:40;1.50;;;1.10;;
2123;SDS011;1068;52.460;13.528;2023-04-02T07:45:08;2.80;;;2.13;;
2123;SDS011;1068;52.460;13.528;2023-04-02T07:47:35;3.85;;;1.50;;
2123;SDS011;1068;52.460;13.528;2023-04-02T07:50:02;2.55;;;1.50;;
2123;SDS011;1068;52.460;13.528;2023-04-02T07:52:29;2.75;;;1.48;;
2123;SDS011;1068;52.460;13.528;2023-04-02T07:54:57;2.40;;;1.35;;
2123;SDS011;1068;52.460;13.528;2023-04-02T07:57:25;3.13;;;1.58;;
2123;SDS011;1068;52.460;13.528;2023-04-02T07:59:52;3.83;;;1.23;;
2123;SDS011;1068;52.460;13.528;2023-04-02T08:02:20;2.15;;;1.23;;
2123;SDS011;1068;52.460;13.528;2023-04-02T08:04:48;4.75;;;1.15;;
2123;SDS011;1068;52.460;13.528;2023-04-02T08:07:15;3.95;;;1.90;;
2123;SDS011;1068;52.460;13.528;2023-04-02T08:09:42;4.07;;;1.65;;
2123;SDS011;1068;52.460;13.528;2023-04-02T08:12:12;3.65;;;1.17;;
2123;SDS011;1068;52.460;13.528;2023-04-02T08:14:39;2.00;;;1.20;;
2123;SDS011;1068;52.460;13.528;2023-04-02T08:17:06;3.38;;;1.40;;
2123;SDS011;1068;52.460;13.528;2023-04-02T08:19:33;1.10;;;1.00;;
2123;SDS011;1068;52.460;13.528;2023-04-02T08:22:00;3.43;;;1.60;;
2123;SDS011;1068;52.460;13.528;2023-04-02T08:24:27;2.72;;;1.40;;
2123;SDS011;1068;52.460;13.528;2023-04-02T08:26:54;2.70;;;1.30;;
2123;SDS011;1068;52.460;13.528;2023-04-02T08:29:22;2.67;;;1.10;;
2123;SDS011;1068;52.460;13.528;2023-04-02T08:31:49;1.05;;;0.90;;
2123;SDS011;1068;52.460;13.528;2023-04-02T08:34:16;4.03;;;0.98;;
2123;SDS011;1068;52.460;13.528;2023-04-02T08:36:43;1.93;;;1.27;;
2123;SDS011;1068;52.460;13.528;2023-04-02T08:39:10;4.43;;;1.50;;
2123;SDS011;1068;52.460;13.528;2023-04-02T08:41:39;3.65;;;1.08;;
2123;SDS011;1068;52.460;13.528;2023-04-02T08:44:10;3.60;;;1.23;;
2123;SDS011;1068;52.460;13.528;2023-04-02T08:46:40;2.40;;;1.17;;
2123;SDS011;1068;52.460;13.528;2023-04-02T08:49:10;1.92;;;1.00;;
2123;SDS011;1068;52.460;13.528;2023-04-02T08:51:38;1.38;;;1.00;;
2123;SDS011;1068;52.460;13.528;2023-04-02T08:54:06;1.38;;;1.00;;
2123;SDS011;1068;52.460;13.528;2023-04-02T08:56:38;2.35;;;1.40;;
2123;SDS011;1068;52.460;13.528;2023-04-02T08:59:07;1.88;;;1.13;;
2123;SDS011;1068;52.460;13.528;2023-04-02T09:01:38;3.35;;;1.30;;
2123;SDS011;1068;52.460;13.528;2023-04-02T09:04:12;2.78;;;1.00;;
2123;SDS011;1068;52.460;13.528;2023-04-02T09:06:40;2.80;;;1.55;;
2123;SDS011;1068;52.460;13.528;2023-04-02T09:09:08;1.45;;;1.15;;
2123;SDS011;1068;52.460;13.528;2023-04-02T09:11:37;3.92;;;1.65;;
2123;SDS011;1068;52.460;13.528;2023-04-02T09:14:09;1.40;;;1.20;;
2123;SDS011;1068;52.460;13.528;2023-04-02T09:16:39;2.47;;;2.28;;
2123;SDS011;1068;52.460;13.528;2023-04-02T09:19:14;3.00;;;1.30;;
2123;SDS011;1068;52.460;13.528;2023-04-02T09:21:42;3.92;;;2.03;;
2123;SDS011;1068;52.460;13.528;2023-04-02T09:24:11;2.38;;;1.15;;
2123;SDS011;1068;52.460;13.528;2023-04-02T09:26:38;1.38;;;1.27;;
2123;SDS011;1068;52.460;13.528;2023-04-02T09:29:14;2.63;;;1.30;;
2123;SDS011;1068;52.460;13.528;2023-04-02T09:31:46;5.07;;;1.60;;
2123;SDS011;1068;52.460;13.528;2023-04-02T09:34:29;2.80;;;1.10;;
2123;SDS011;1068;52.460;13.528;2023-04-02T09:36:56;1.90;;;1.30;;
2123;SDS011;1068;52.460;13.528;2023-04-02T09:39:23;3.22;;;1.15;;
2123;SDS011;1068;52.460;13.528;2023-04-02T09:41:50;2.97;;;1.45;;
2123;SDS011;1068;52.460;13.528;2023-04-02T09:44:19;2.95;;;1.20;;
2123;SDS011;1068;52.460;13.528;2023-04-02T09:46:47;4.03;;;1.30;;
2123;SDS011;1068;52.460;13.528;2023-04-02T09:49:15;3.55;;;1.55;;
2123;SDS011;1068;52.460;13.528;2023-04-02T09:51:44;4.13;;;1.58;;
2123;SDS011;1068;52.460;13.528;2023-04-02T09:54:12;2.45;;;1.20;;
2123;SDS011;1068;52.460;13.528;2023-04-02T09:56:42;5.13;;;1.50;;
2123;SDS011;1068;52.460;13.528;2023-04-02T09:59:24;1.75;;;1.30;;
2123;SDS011;1068;52.460;13.528;2023-04-02T10:01:56;2.42;;;1.70;;
2123;SDS011;1068;52.460;13.528;2023-04-02T10:04:30;1.77;;;1.00;;
2123;SDS011;1068;52.460;13.528;2023-04-02T10:07:01;7.72;;;1.38;;
2123;SDS011;1068;52.460;13.528;2023-04-02T10:09:29;1.80;;;1.00;;
2123;SDS011;1068;52.460;13.528;2023-04-02T10:11:56;2.60;;;1.07;;
2123;SDS011;1068;52.460;13.528;2023-04-02T10:14:24;3.37;;;1.50;;
2123;SDS011;1068;52.460;13.528;2023-04-02T10:16:54;3.25;;;1.35;;
2123;SDS011;1068;52.460;13.528;2023-04-02T10:19:24;3.03;;;1.30;;
2123;SDS011;1068;52.460;13.528;2023-04-02T10:21:52;6.83;;;1.53;;
2123;SDS011;1068;52.460;13.528;2023-04-02T10:24:20;2.80;;;1.20;;
2123;SDS011;1068;52.460;13.528;2023-04-02T10:26:51;4.27;;;1.23;;
2123;SDS011;1068;52.460;13.528;2023-04-02T10:32:12;3.73;;;1.47;;
2123;SDS011;1068;52.460;13.528;2023-04-02T10:34:42;4.13;;;1.77;;
2123;SDS011;1068;52.460;13.528;2023-04-02T10:37:15;1.97;;;1.30;;
2123;SDS011;1068;52.460;13.528;2023-04-02T10:39:48;2.10;;;1.53;;
2123;SDS011;1068;52.460;13.528;2023-04-02T10:42:18;3.30;;;1.40;;
2123;SDS011;1068;52.460;13.528;2023-04-02T10:44:50;3.80;;;1.20;;
2123;SDS011;1068;52.460;13.528;2023-04-02T10:47:21;2.17;;;1.13;;
2123;SDS011;1068;52.460;13.528;2023-04-02T10:49:53;1.50;;;1.40;;
2123;SDS011;1068;52.460;13.528;2023-04-02T10:52:25;4.23;;;1.50;;
2123;SDS011;1068;52.460;13.528;2023-04-02T10:54:54;2.30;;;1.20;;
2123;SDS011;1068;52.460;13.528;2023-04-02T10:57:25;1.40;;;1.30;;
2123;SDS011;1068;52.460;13.528;2023-04-02T10:59:55;2.03;;;1.40;;
2123;SDS011;1068;52.460;13.528;2023-04-02T11:02:28;2.43;;;1.27;;
2123;SDS011;1068;52.460;13.528;2023-04-02T11:04:57;1.70;;;1.40;;
2123;SDS011;1068;52.460;13.528;2023-04-02T11:07:25;4.07;;;1.23;;
2123;SDS011;1068;52.460;13.528;2023-04-02T11:09:56;1.93;;;1.40;;
2123;SDS011;1068;52.460;13.528;2023-04-02T11:12:27;2.80;;;1.53;;
2123;SDS011;1068;52.460;13.528;2023-04-02T11:14:57;1.63;;;1.30;;
2123;SDS011;1068;52.460;13.528;2023-04-02T11:17:24;3.28;;;1.38;;
2123;SDS011;1068;52.460;13.528;2023-04-02T11:19:51;4.93;;;1.20;;
2123;SDS011;1068;52.460;13.528;2023-04-02T11:22:20;5.72;;;1.60;;
2123;SDS011;1068;52.460;13.528;2023-04-02T11:24:48;3.10;;;1.60;;
2123;SDS011;1068;52.460;13.528;2023-04-02T11:27:26;1.87;;;1.43;;
2123;SDS011;1068;52.460;13.528;2023-04-02T11:30:00;2.53;;;1.57;;
2123;SDS011;1068;52.460;13.528;2023-04-02T11:32:32;2.00;;;1.50;;
2123;SDS011;1068;52.460;13.528;2023-04-02T11:37:51;4.27;;;1.70;;
2123;SDS011;1068;52.460;13.528;2023-04-02T11:45:51;3.00;;;1.47;;
2123;SDS011;1068;52.460;13.528;2023-04-02T11:48:25;5.77;;;1.90;;
2123;SDS011;1068;52.460;13.528;2023-04-02T11:50:53;2.17;;;1.80;;
2123;SDS011;1068;52.460;13.528;2023-04-02T11:53:21;1.83;;;1.63;;
2123;SDS011;1068;52.460;13.528;2023-04-02T11:58:33;4.63;;;2.17;;
2123;SDS011;1068;52.460;13.528;2023-04-02T12:04:00;2.57;;;1.60;;
2123;SDS011;1068;52.460;13.528;2023-04-02T12:06:33;2.03;;;1.20;;
2123;SDS011;1068;52.460;13.528;2023-04-02T12:09:05;1.57;;;1.33;;
2123;SDS011;1068;52.460;13.528;2023-04-02T12:11:37;3.50;;;1.70;;
2123;SDS011;1068;52.460;13.528;2023-04-02T12:14:06;1.90;;;1.30;;
2123;SDS011;1068;52.460;13.528;2023-04-02T12:16:52;3.30;;;1.50;;
2123;SDS011;1068;52.460;13.528;2023-04-02T12:19:21;1.73;;;1.40;;
2123;SDS011;1068;52.460;13.528;2023-04-02T12:21:48;4.63;;;1.70;;
2123;SDS011;1068;52.460;13.528;2023-04-02T12:24:18;3.90;;;1.70;;
2123;SDS011;1068;52.460;13.528;2023-04-02T12:26:46;1.33;;;1.23;;
2123;SDS011;1068;52.460;13.528;2023-04-02T12:29:23;3.00;;;1.53;;
2123;SDS011;1068;52.460;13.528;2023-04-02T12:31:50;2.10;;;1.90;;
2123;SDS011;1068;52.460;13.528;2023-04-02T12:34:18;6.60;;;1.87;;
2123;SDS011;1068;52.460;13.528;2023-04-02T12:36:54;3.27;;;1.30;;
2123;SDS011;1068;52.460;13.528;2023-04-02T12:39:21;3.87;;;2.10;;
2123;SDS011;1068;52.460;13.528;2023-04-02T12:41:48;5.93;;;1.87;;
2123;SDS011;1068;52.460;13.528;2023-04-02T12:44:16;5.60;;;1.60;;
2123;SDS011;1068;52.460;13.528;2023-04-02T12:46:44;3.00;;;2.33;;
2123;SDS011;1068;52.460;13.528;2023-04-02T12:49:17;3.93;;;1.90;;
2123;SDS011;1068;52.460;13.528;2023-04-02T12:51:45;2.73;;;1.30;;
2123;SDS011;1068;52.460;13.528;2023-04-02T12:54:15;1.43;;;1.30;;
2123;SDS011;1068;52.460;13.528;2023-04-02T12:56:43;2.27;;;1.30;;
2123;SDS011;1068;52.460;13.528;2023-04-02T12:59:17;3.80;;;1.80;;
2123;SDS011;1068;52.460;13.528;2023-04-02T13:01:53;4.10;;;1.63;;
2123;SDS011;1068;52.460;13.528;2023-04-02T13:04:21;1.40;;;1.30;;
2123;SDS011;1068;52.460;13.528;2023-04-02T13:06:48;4.60;;;1.67;;
2123;SDS011;1068;52.460;13.528;2023-04-02T13:09:30;4.10;;;1.27;;
2123;SDS011;1068;52.460;13.528;2023-04-02T13:11:59;2.80;;;1.37;;
2123;SDS011;1068;52.460;13.528;2023-04-02T13:14:26;1.90;;;1.50;;
2123;SDS011;1068;52.460;13.528;2023-04-02T13:16:54;4.20;;;1.43;;
2123;SDS011;1068;52.460;13.528;2023-04-02T13:19:26;2.90;;;1.40;;
2123;SDS011;1068;52.460;13.528;2023-04-02T13:21:54;2.20;;;1.20;;
2123;SDS011;1068;52.460;13.528;2023-04-02T13:24:22;3.07;;;1.30;;
2123;SDS011;1068;52.460;13.528;2023-04-02T13:26:52;1.67;;;1.20;;
2123;SDS011;1068;52.460;13.528;2023-04-02T13:29:23;2.93;;;1.40;;
2123;SDS011;1068;52.460;13.528;2023-04-02T13:31:51;2.33;;;1.23;;
2123;SDS011;1068;52.460;13.528;2023-04-02T13:34:18;1.63;;;1.10;;
2123;SDS011;1068;52.460;13.528;2023-04-02T13:36:45;1.50;;;1.20;;
2123;SDS011;1068;52.460;13.528;2023-04-02T13:39:12;2.57;;;1.03;;
2123;SDS011;1068;52.460;13.528;2023-04-02T13:41:40;3.80;;;1.43;;
2123;SDS011;1068;52.460;13.528;2023-04-02T13:46:42;4.00;;;1.27;;
2123;SDS011;1068;52.460;13.528;2023-04-02T13:49:09;2.30;;;1.17;;
2123;SDS011;1068;52.460;13.528;2023-04-02T13:51:37;2.80;;;1.20;;
2123;SDS011;1068;52.460;13.528;2023-04-02T13:54:05;3.00;;;1.20;;
2123;SDS011;1068;52.460;13.528;2023-04-02T13:56:32;3.13;;;1.50;;
2123;SDS011;1068;52.460;13.528;2023-04-02T13:59:00;2.30;;;1.03;;
2123;SDS011;1068;52.460;13.528;2023-04-02T14:01:27;3.23;;;1.20;;
2123;SDS011;1068;52.460;13.528;2023-04-02T14:03:55;1.17;;;0.90;;
2123;SDS011;1068;52.460;13.528;2023-04-02T14:06:25;4.20;;;1.03;;
2123;SDS011;1068;52.460;13.528;2023-04-02T14:08:56;2.00;;;1.50;;
2123;SDS011;1068;52.460;13.528;2023-04-02T14:11:30;2.40;;;1.10;;
2123;SDS011;1068;52.460;13.528;2023-04-02T14:14:02;2.80;;;1.10;;
2123;SDS011;1068;52.460;13.528;2023-04-02T14:16:38;4.83;;;1.90;;
2123;SDS011;1068;52.460;13.528;2023-04-02T14:19:12;1.97;;;1.40;;
2123;SDS011;1068;52.460;13.528;2023-04-02T14:21:45;2.67;;;1.27;;
2123;SDS011;1068;52.460;13.528;2023-04-02T14:24:17;1.90;;;1.10;;
2123;SDS011;1068;52.460;13.528;2023-04-02T14:26:49;3.43;;;1.30;;
2123;SDS011;1068;52.460;13.528;2023-04-02T14:29:19;2.63;;;1.43;;
2123;SDS011;1068;52.460;13.528;2023-04-02T14:31:49;1.43;;;0.93;;
2123;SDS011;1068;52.460;13.528;2023-04-02T14:34:23;2.73;;;0.90;;
2123;SDS011;1068;52.460;13.528;2023-04-02T14:36:55;2.83;;;1.77;;
2123;SDS011;1068;52.460;13.528;2023-04-02T14:39:27;3.50;;;1.20;;
2123;SDS011;1068;52.460;13.528;2023-04-02T14:41:57;3.00;;;0.70;;
2123;SDS011;1068;52.460;13.528;2023-04-02T14:44:26;2.90;;;1.30;;
2123;SDS011;1068;52.460;13.528;2023-04-02T14:46:57;2.50;;;1.17;;
2123;SDS011;1068;52.460;13.528;2023-04-02T14:49:29;1.40;;;0.90;;
2123;SDS011;1068;52.460;13.528;2023-04-02T14:51:58;1.97;;;1.10;;
2123;SDS011;1068;52.460;13.528;2023-04-02T14:54:28;3.23;;;1.73;;
2123;SDS011;1068;52.460;13.528;2023-04-02T14:56:58;4.93;;;1.60;;
2123;SDS011;1068;52.460;13.528;2023-04-02T14:59:27;1.93;;;1.60;;
2123;SDS011;1068;52.460;13.528;2023-04-02T15:01:56;2.90;;;0.93;;
2123;SDS011;1068;52.460;13.528;2023-04-02T15:04:25;2.47;;;1.10;;
2123;SDS011;1068;52.460;13.528;2023-04-02T15:06:56;2.70;;;1.17;;
2123;SDS011;1068;52.460;13.528;2023-04-02T15:09:25;4.50;;;1.10;;
2123;SDS011;1068;52.460;13.528;2023-04-02T15:11:54;2.77;;;1.43;;
2123;SDS011;1068;52.460;13.528;2023-04-02T15:14:24;1.73;;;1.40;;
2123;SDS011;1068;52.460;13.528;2023-04-02T15:16:53;3.23;;;1.83;;
2123;SDS011;1068;52.460;13.528;2023-04-02T15:19:20;1.90;;;1.10;;
2123;SDS011;1068;52.460;13.528;2023-04-02T15:22:03;3.10;;;1.20;;
2123;SDS011;1068;52.460;13.528;2023-04-02T15:24:32;1.53;;;1.20;;
2123;SDS011;1068;52.460;13.528;2023-04-02T15:27:04;4.60;;;1.70;;
2123;SDS011;1068;52.460;13.528;2023-04-02T15:29:38;4.10;;;1.90;;
2123;SDS011;1068;52.460;13.528;2023-04-02T15:32:11;7.23;;;1.53;;
2123;SDS011;1068;52.460;13.528;2023-04-02T15:34:42;1.67;;;1.20;;
2123;SDS011;1068;52.460;13.528;2023-04-02T15:37:13;3.63;;;1.30;;